Ahar, Iran

10:26 PM IRDT on August 24, 2016 (GMT +0430)
Tabriz International | | Change Station

Elev 4459 ft 38.13 °N, 46.24 °E | Updated 26 minutes ago

Partly Cloudy
Partly Cloudy
81 °F
Feels Like 81 °F
N
12
Wind Variable Wind from East

Today
High -- | Low -- °F
--% Chance of Precip.
Yesterday
High -- | Low -- °F
Precip. -- in
Pressure 30.06 in
Visibility 6.2 miles
Clouds Few 3500 ft
Dew Point 37 °F
Humidity 21%
Rainfall 0.00 in
Snow Depth Not available.
6:44 AM 8:03 PM
Waning Gibbous, 55% visible
METAR OITT 241730Z 10010KT 9999 FEW035 27/03 Q1018 A3007
Pressure 30.06 in
Visibility 6.2 miles
Clouds Few 3500 ft
Dew Point 37 °F
Humidity 21%
Rainfall 0.00 in
Snow Depth Not available.
6:44 AM 8:03 PM
Waning Gibbous, 55% visible
METAR OITT 241730Z 10010KT 9999 FEW035 27/03 Q1018 A3007

10-Day Weather Forecast

No radar image for this location.
×

Almanac

Astronomy

Aug. 24, 2016 Rise Set
Actual Time
Civil Twilight
Nautical Twilight
Astronomical Twilight
Moon
Length of Visible Light
Length of Day
Tomorrow will be .
, % of the Moon is Illuminated

Today's Extremes

Country Highs Country Lows

Community

WunderPhotos

Upload Photos

1,934,661 photos uploaded!

WunderBlog® & News

Nearby

Air Quality

  Air Quality AQ Index Pollutant
Not available.

Snow Depth

Station Depth Elevation

Earthquake Activity

City Distance Mag. Time & Date
Minimum magnitude displayed is 2.5.

Coastal Water Temperatures

Place Temperature

Stations

Nearby Weather Stations

Station Location Temp. Windchill Dew Point Humidity Wind Precip. Elev Updated Type